createdAt,value
2017-11-16T00:04:59.883Z,7.34
2017-11-16T00:11:03.421Z,7.38
2017-11-16T00:17:07.656Z,7.30
2017-11-16T00:23:11.165Z,7.27
2017-11-16T00:29:14.603Z,7.34
2017-11-16T00:35:18.080Z,7.34
2017-11-16T00:41:22.367Z,7.29
2017-11-16T00:47:25.838Z,7.32
2017-11-16T00:53:29.291Z,7.32
2017-11-16T00:59:32.778Z,7.29
2017-11-16T01:05:36.243Z,7.29
2017-11-16T01:11:39.717Z,7.19
2017-11-16T01:17:43.188Z,7.22
2017-11-16T01:23:47.403Z,7.20
2017-11-16T01:29:50.909Z,7.21
2017-11-16T01:35:54.366Z,7.22
2017-11-16T01:41:57.831Z,7.20
2017-11-16T01:48:02.047Z,7.26
2017-11-16T01:54:05.530Z,7.15
2017-11-16T02:00:09.038Z,7.19
2017-11-16T02:06:12.491Z,7.20
2017-11-16T02:12:16.719Z,7.08
2017-11-16T02:18:20.232Z,7.07
2017-11-16T02:24:23.703Z,7.11
2017-11-16T02:30:27.230Z,7.08
2017-11-16T02:36:30.696Z,7.05
2017-11-16T02:42:34.177Z,7.11
2017-11-16T02:48:37.616Z,7.14
2017-11-16T02:54:41.057Z,7.07
2017-11-16T03:00:44.637Z,7.01
2017-11-16T03:06:48.133Z,7.01
2017-11-16T03:12:51.614Z,7.04
2017-11-16T03:18:55.084Z,7.02
2017-11-16T03:24:58.547Z,6.95
2017-11-16T03:31:01.993Z,6.96
2017-11-16T03:37:05.464Z,6.95
2017-11-16T03:43:09.692Z,6.98
2017-11-16T03:49:13.148Z,7.03
2017-11-16T03:55:17.387Z,7.01
2017-11-16T04:01:20.953Z,6.98
2017-11-16T04:07:24.424Z,6.96
2017-11-16T04:13:28.689Z,6.86
2017-11-16T04:19:32.156Z,6.75
2017-11-16T04:25:35.625Z,6.71
2017-11-16T04:31:39.082Z,6.70
2017-11-16T04:37:43.313Z,6.71
2017-11-16T04:43:46.768Z,6.69
2017-11-16T04:49:51.069Z,6.65
2017-11-16T04:55:55.306Z,6.67
2017-11-16T05:01:58.786Z,6.56
2017-11-16T05:08:02.593Z,6.58
2017-11-16T05:14:06.048Z,6.60
2017-11-16T05:20:09.505Z,6.55
2017-11-16T05:26:13.743Z,6.54
2017-11-16T05:32:17.197Z,6.53
2017-11-16T05:38:21.429Z,6.51
2017-11-16T05:44:24.897Z,6.53
2017-11-16T05:50:28.355Z,6.49
2017-11-16T05:56:32.599Z,6.49
2017-11-16T06:02:36.102Z,6.35
2017-11-16T06:08:39.567Z,6.49
2017-11-16T06:14:43.042Z,6.52
2017-11-16T06:20:46.680Z,6.46
2017-11-16T06:26:50.162Z,6.35
2017-11-16T06:32:53.642Z,6.32
2017-11-16T06:38:57.111Z,6.32
2017-11-16T06:45:00.636Z,6.34
2017-11-16T06:51:04.872Z,6.35
2017-11-16T06:57:08.332Z,6.35
2017-11-16T07:03:12.578Z,6.40
2017-11-16T07:09:16.040Z,6.42
2017-11-16T07:15:19.492Z,6.48
2017-11-16T07:21:23.749Z,6.53
2017-11-16T07:27:27.218Z,6.50
2017-11-16T07:33:30.714Z,6.55
2017-11-16T07:39:34.172Z,6.50
2017-11-16T07:45:37.647Z,6.54
2017-11-16T07:51:41.171Z,6.60
2017-11-16T07:57:44.654Z,6.44
2017-11-16T08:03:48.122Z,6.34
2017-11-16T08:09:51.575Z,6.50
2017-11-16T08:15:55.044Z,6.62
2017-11-16T08:21:59.283Z,6.68
2017-11-16T08:28:02.821Z,6.78
2017-11-16T08:34:07.051Z,6.88
2017-11-16T08:40:10.671Z,6.90
2017-11-16T08:46:14.109Z,6.80
2017-11-16T08:52:18.454Z,6.91
2017-11-16T08:58:22.001Z,6.88
2017-11-16T09:04:26.237Z,6.92
2017-11-16T09:10:29.669Z,6.97
2017-11-16T09:16:33.115Z,7.03
2017-11-16T09:22:36.696Z,7.06
2017-11-16T09:28:40.143Z,6.84
2017-11-16T09:34:44.359Z,6.89
2017-11-16T09:40:47.804Z,7.01
2017-11-16T09:46:51.255Z,7.20
2017-11-16T09:52:54.699Z,7.10
2017-11-16T09:58:58.161Z,7.18
2017-11-16T10:05:03.176Z,7.24
2017-11-16T10:11:06.665Z,7.22
2017-11-16T10:17:10.922Z,7.53
2017-11-16T10:23:14.371Z,7.62
2017-11-16T10:29:18.595Z,7.56
2017-11-16T10:35:22.101Z,7.31
2017-11-16T10:41:25.565Z,7.63
2017-11-16T10:47:29.012Z,7.84
2017-11-16T10:53:33.255Z,7.78
2017-11-16T10:59:36.729Z,7.72
2017-11-16T11:05:40.369Z,7.88
2017-11-16T11:11:43.854Z,7.83
2017-11-16T11:17:47.453Z,7.84
2017-11-16T11:23:51.681Z,7.84
2017-11-16T11:29:55.128Z,7.81
2017-11-16T11:35:58.738Z,8.10
2017-11-16T11:42:02.781Z,8.15
2017-11-16T11:48:06.234Z,7.87
2017-11-16T11:54:09.691Z,7.81
2017-11-16T12:00:13.935Z,7.92
2017-11-16T12:06:17.400Z,7.94
2017-11-16T12:12:20.853Z,7.78
2017-11-16T12:18:25.076Z,7.73
2017-11-16T12:24:28.536Z,7.60
2017-11-16T12:30:32.776Z,7.83
2017-11-16T12:36:36.442Z,7.93
2017-11-16T12:42:40.648Z,7.75
2017-11-16T12:48:44.850Z,7.69
2017-11-16T12:54:48.302Z,7.96
2017-11-16T13:00:52.549Z,7.97
2017-11-16T13:06:56.008Z,7.99
2017-11-16T13:13:00.255Z,7.93
2017-11-16T13:19:03.687Z,7.90
2017-11-16T13:25:07.950Z,7.92
2017-11-16T13:31:11.416Z,8.14
2017-11-16T13:37:14.942Z,7.80
2017-11-16T13:43:18.415Z,7.71
2017-11-16T13:49:21.896Z,7.95
2017-11-16T14:01:35.771Z,7.80
2017-11-16T14:07:40.032Z,7.71
2017-11-16T14:13:43.483Z,7.68
2017-11-16T14:19:46.956Z,7.58
2017-11-16T14:25:50.446Z,7.54
2017-11-16T14:31:53.905Z,7.52
2017-11-16T14:37:57.368Z,7.53
2017-11-16T14:44:00.880Z,7.54
2017-11-16T14:50:04.324Z,7.52
2017-11-16T14:56:07.765Z,7.50
2017-11-16T15:02:11.252Z,7.37
2017-11-16T15:08:14.713Z,7.09
2017-11-16T15:14:18.181Z,6.90
2017-11-16T15:20:22.409Z,6.80
2017-11-16T15:26:25.892Z,6.79
2017-11-16T15:32:29.373Z,6.83
2017-11-16T15:38:32.867Z,6.79
2017-11-16T15:44:36.351Z,6.76
2017-11-16T15:50:39.842Z,6.76
2017-11-16T15:56:43.311Z,6.77
2017-11-16T16:02:46.794Z,6.72
2017-11-16T16:08:50.273Z,6.70
2017-11-16T16:14:53.747Z,6.63
2017-11-16T16:20:57.244Z,6.59
2017-11-16T16:27:00.749Z,6.43
2017-11-16T16:33:04.229Z,6.47
2017-11-16T16:39:07.681Z,6.41
2017-11-16T16:45:11.932Z,6.34
2017-11-16T16:51:15.399Z,6.25
2017-11-16T16:57:19.019Z,6.15
2017-11-16T17:03:22.556Z,6.02
2017-11-16T17:09:26.021Z,6.09
2017-11-16T17:15:30.853Z,6.03
2017-11-16T17:21:34.328Z,6.03
2017-11-16T17:27:38.586Z,5.98
2017-11-16T17:33:42.040Z,6.03
2017-11-16T17:39:45.522Z,6.03
2017-11-16T17:45:48.987Z,5.99
2017-11-16T17:51:52.470Z,5.98
2017-11-16T17:57:55.959Z,5.90
2017-11-16T18:03:59.431Z,5.90
2017-11-16T18:10:03.751Z,5.98
2017-11-16T18:16:07.234Z,6.05
2017-11-16T18:22:10.716Z,6.09
2017-11-16T18:28:14.183Z,6.04
2017-11-16T18:34:18.459Z,6.01
2017-11-16T18:40:21.928Z,6.06
2017-11-16T18:46:25.430Z,6.05
2017-11-16T18:52:28.942Z,6.06
2017-11-16T18:58:32.403Z,5.97
2017-11-16T19:04:35.890Z,6.04
2017-11-16T19:10:39.372Z,6.04
2017-11-16T19:16:42.932Z,6.01
2017-11-16T19:22:46.399Z,6.09
2017-11-16T19:28:49.893Z,6.06
2017-11-16T19:34:53.375Z,6.13
2017-11-16T19:40:56.866Z,6.13
2017-11-16T19:47:00.346Z,6.17
2017-11-16T19:53:03.805Z,6.15
2017-11-16T19:59:07.308Z,6.12
2017-11-16T20:05:10.787Z,6.14
2017-11-16T20:11:14.289Z,6.14
2017-11-16T20:17:18.121Z,6.15
2017-11-16T20:23:22.364Z,6.10
2017-11-16T20:29:25.852Z,6.03
2017-11-16T20:35:29.324Z,6.10
2017-11-16T20:41:51.384Z,6.08
2017-11-16T20:48:00.297Z,6.09
2017-11-16T20:54:03.759Z,6.04
2017-11-16T21:00:07.232Z,6.00
2017-11-16T21:06:10.719Z,5.98
2017-11-16T21:12:14.175Z,5.86
2017-11-16T21:18:17.601Z,5.89
2017-11-16T21:24:21.090Z,5.96
2017-11-16T21:30:24.551Z,5.95
2017-11-16T21:36:28.047Z,5.94
2017-11-16T21:42:31.509Z,6.05
2017-11-16T21:48:34.988Z,6.09
2017-11-16T21:54:38.443Z,6.05
2017-11-16T22:00:42.672Z,6.08
2017-11-16T22:06:46.149Z,6.03
2017-11-16T22:12:49.603Z,6.07
2017-11-16T22:18:53.837Z,6.37
2017-11-16T22:24:57.311Z,6.05
2017-11-16T22:31:00.799Z,6.00
2017-11-16T22:37:04.264Z,5.90
2017-11-16T22:43:08.531Z,5.95
2017-11-16T22:49:11.988Z,5.95
2017-11-16T22:55:15.462Z,5.91
2017-11-16T23:01:18.928Z,5.85
2017-11-16T23:07:22.397Z,5.87
2017-11-16T23:13:26.658Z,5.87
2017-11-16T23:19:30.146Z,5.91
2017-11-16T23:25:33.639Z,5.92
2017-11-16T23:31:37.112Z,5.94
2017-11-16T23:37:40.594Z,5.91
2017-11-16T23:43:44.069Z,6.03
2017-11-16T23:49:47.539Z,5.99
2017-11-16T23:55:50.996Z,6.02
